createdAt,value
2022-12-24T00:00:38.280Z,1.30
2022-12-24T00:03:18.867Z,1.27
2022-12-24T00:05:45.703Z,1.48
2022-12-24T00:08:12.824Z,1.73
2022-12-24T00:10:39.682Z,1.60
2022-12-24T00:13:07.251Z,1.77
2022-12-24T00:15:34.008Z,1.50
2022-12-24T00:18:01.137Z,1.55
2022-12-24T00:20:27.997Z,1.80
2022-12-24T00:22:55.135Z,1.67
2022-12-24T00:25:21.969Z,1.38
2022-12-24T00:27:49.138Z,1.30
2022-12-24T00:30:16.083Z,1.30
2022-12-24T00:32:43.296Z,1.30
2022-12-24T00:35:10.085Z,1.10
2022-12-24T00:37:37.257Z,1.30
2022-12-24T00:40:04.599Z,1.20
2022-12-24T00:42:31.732Z,1.25
2022-12-24T00:44:58.534Z,1.25
2022-12-24T00:47:25.691Z,1.13
2022-12-24T00:49:52.482Z,1.20
2022-12-24T00:52:19.625Z,1.10
2022-12-24T00:54:46.416Z,1.75
2022-12-24T00:57:13.763Z,1.48
2022-12-24T00:59:40.581Z,1.10
2022-12-24T01:02:07.863Z,1.23
2022-12-24T01:04:53.689Z,1.50
2022-12-24T01:07:20.853Z,1.42
2022-12-24T01:09:47.715Z,1.20
2022-12-24T01:12:15.845Z,1.23
2022-12-24T01:14:42.750Z,1.30
2022-12-24T01:17:10.891Z,1.20
2022-12-24T01:19:37.713Z,1.30
2022-12-24T01:22:04.867Z,1.30
2022-12-24T01:24:31.665Z,1.30
2022-12-24T01:26:59.194Z,1.70
2022-12-24T01:29:25.971Z,1.40
2022-12-24T01:31:53.273Z,1.42
2022-12-24T01:34:20.350Z,1.30
2022-12-24T01:36:47.485Z,1.27
2022-12-24T01:39:14.292Z,1.15
2022-12-24T01:42:00.024Z,1.23
2022-12-24T01:44:35.702Z,1.17
2022-12-24T01:47:34.148Z,1.50
2022-12-24T01:50:12.415Z,1.50
2022-12-24T01:52:39.787Z,1.60
2022-12-24T01:55:10.495Z,1.30
2022-12-24T01:57:48.007Z,1.30
2022-12-24T02:00:16.338Z,1.40
2022-12-24T02:02:47.696Z,0.93
2022-12-24T02:05:20.829Z,1.40
2022-12-24T02:07:48.361Z,1.73
2022-12-24T02:10:16.383Z,1.40
2022-12-24T02:12:44.548Z,1.30
2022-12-24T02:15:15.108Z,1.50
2022-12-24T02:17:50.047Z,1.80
2022-12-24T02:20:20.007Z,1.33
2022-12-24T02:23:07.000Z,1.50
2022-12-24T02:25:48.967Z,1.67
2022-12-24T02:28:40.877Z,1.42
2022-12-24T02:31:19.366Z,1.50
2022-12-24T02:34:18.479Z,1.43
2022-12-24T02:36:59.909Z,1.17
2022-12-24T02:39:37.448Z,1.70
2022-12-24T02:42:06.607Z,1.50
2022-12-24T02:44:46.571Z,1.52
2022-12-24T02:47:14.746Z,1.50
2022-12-24T02:49:45.867Z,1.50
2022-12-24T02:52:29.017Z,1.48
2022-12-24T02:54:58.572Z,1.40
2022-12-24T02:57:46.571Z,1.45
2022-12-24T03:00:18.360Z,1.50
2022-12-24T03:02:57.108Z,1.73
2022-12-24T03:05:48.327Z,1.63
2022-12-24T03:08:18.076Z,1.60
2022-12-24T03:11:00.551Z,1.50
2022-12-24T03:13:28.608Z,1.50
2022-12-24T03:15:55.864Z,1.65
2022-12-24T03:18:25.874Z,1.40
2022-12-24T03:20:59.182Z,1.10
2022-12-24T03:23:26.334Z,1.30
2022-12-24T03:25:54.211Z,1.63
2022-12-24T03:28:26.258Z,1.20
2022-12-24T03:30:53.819Z,1.70
2022-12-24T03:33:21.469Z,1.50
2022-12-24T03:35:48.764Z,1.67
2022-12-24T03:38:15.600Z,1.20
2022-12-24T03:40:42.773Z,1.45
2022-12-24T03:43:09.613Z,1.40
2022-12-24T03:45:36.791Z,1.20
2022-12-24T03:48:04.057Z,1.63
2022-12-24T03:50:31.738Z,1.40
2022-12-24T03:52:58.668Z,1.40
2022-12-24T03:55:26.081Z,1.60
2022-12-24T03:57:52.956Z,1.60
2022-12-24T04:00:20.660Z,1.20
2022-12-24T04:02:47.785Z,1.30
2022-12-24T04:05:17.798Z,1.40
2022-12-24T04:07:44.842Z,1.08
2022-12-24T04:10:12.403Z,1.42
2022-12-24T04:12:39.544Z,1.73
2022-12-24T04:15:07.696Z,1.50
2022-12-24T04:17:34.826Z,1.30
2022-12-24T04:20:02.375Z,1.25
2022-12-24T04:22:29.238Z,1.90
2022-12-24T04:24:56.456Z,1.45
2022-12-24T04:27:29.952Z,1.00
2022-12-24T04:29:57.944Z,1.30
2022-12-24T04:32:26.898Z,1.27
2022-12-24T04:34:54.255Z,1.30
2022-12-24T04:37:21.243Z,1.20
2022-12-24T04:39:48.368Z,1.50
2022-12-24T04:42:15.225Z,1.23
2022-12-24T04:44:42.425Z,1.30
2022-12-24T04:47:10.875Z,1.30
2022-12-24T04:49:38.114Z,1.20
2022-12-24T04:52:05.229Z,1.20
2022-12-24T04:54:32.485Z,1.10
2022-12-24T04:56:59.329Z,1.20
2022-12-24T04:59:26.524Z,1.20
2022-12-24T05:01:53.453Z,1.20
2022-12-24T05:04:20.807Z,1.30
2022-12-24T05:06:47.653Z,1.20
2022-12-24T05:09:15.134Z,1.42
2022-12-24T05:11:41.986Z,1.15
2022-12-24T05:14:09.265Z,1.40
2022-12-24T05:16:36.219Z,1.47
2022-12-24T05:19:03.411Z,1.50
2022-12-24T05:21:30.250Z,1.50
2022-12-24T05:24:16.095Z,1.40
2022-12-24T05:26:47.168Z,1.60
2022-12-24T05:29:14.812Z,1.30
2022-12-24T05:31:45.764Z,1.40
2022-12-24T05:34:15.367Z,1.20
2022-12-24T05:36:42.907Z,1.40
2022-12-24T05:39:19.260Z,1.20
2022-12-24T05:41:46.610Z,1.70
2022-12-24T05:44:15.053Z,1.27
2022-12-24T05:46:42.367Z,1.17
2022-12-24T05:49:09.789Z,1.27
2022-12-24T05:51:36.742Z,1.50
2022-12-24T05:54:05.323Z,1.80
2022-12-24T05:56:32.759Z,1.30
2022-12-24T05:59:00.312Z,1.60
2022-12-24T06:01:27.544Z,1.40
2022-12-24T06:03:56.262Z,1.30
2022-12-24T06:06:25.382Z,1.07
2022-12-24T06:08:54.327Z,1.23
2022-12-24T06:11:24.659Z,1.20
2022-12-24T06:13:53.144Z,1.20
2022-12-24T06:16:21.291Z,1.08
2022-12-24T06:18:48.532Z,1.10
2022-12-24T06:21:15.651Z,1.27
2022-12-24T06:23:44.544Z,1.35
2022-12-24T06:26:17.221Z,1.10
2022-12-24T06:28:45.359Z,1.15
2022-12-24T06:31:15.456Z,1.10
2022-12-24T06:33:42.811Z,1.48
2022-12-24T06:36:17.531Z,1.25
2022-12-24T06:38:46.721Z,1.20
2022-12-24T06:41:14.167Z,1.30
2022-12-24T06:43:49.707Z,1.10
2022-12-24T06:46:17.505Z,1.20
2022-12-24T06:48:45.880Z,1.30
2022-12-24T06:51:14.295Z,1.25
2022-12-24T06:53:41.578Z,1.33
2022-12-24T06:56:11.172Z,1.20
2022-12-24T06:58:39.036Z,1.20
2022-12-24T07:01:08.871Z,1.20
2022-12-24T07:03:37.065Z,1.45
2022-12-24T07:06:04.049Z,1.55
2022-12-24T07:08:33.772Z,1.10
2022-12-24T07:11:00.937Z,1.90
2022-12-24T07:13:28.174Z,2.33
2022-12-24T07:15:59.059Z,1.70
2022-12-24T07:18:26.425Z,1.58
2022-12-24T07:20:53.534Z,1.60
2022-12-24T07:23:21.042Z,1.80
2022-12-24T07:25:48.109Z,1.33
2022-12-24T07:28:15.270Z,1.23
2022-12-24T07:30:42.117Z,1.38
2022-12-24T07:33:09.419Z,1.27
2022-12-24T07:35:36.307Z,1.70
2022-12-24T07:38:03.486Z,2.05
2022-12-24T07:40:30.367Z,1.90
2022-12-24T07:42:57.566Z,1.58
2022-12-24T07:45:24.433Z,2.30
2022-12-24T07:47:51.621Z,1.58
2022-12-24T07:50:18.681Z,1.80
2022-12-24T07:52:45.840Z,2.00
2022-12-24T07:55:12.835Z,1.95
2022-12-24T07:57:39.993Z,1.77
2022-12-24T08:00:07.475Z,2.10
2022-12-24T08:02:39.537Z,2.38
2022-12-24T08:05:07.100Z,3.03
2022-12-24T08:07:34.268Z,2.60
2022-12-24T08:10:01.097Z,2.50
2022-12-24T08:12:28.226Z,2.38
2022-12-24T08:14:55.845Z,2.15
2022-12-24T08:17:27.016Z,2.28
2022-12-24T08:19:58.603Z,2.63
2022-12-24T08:22:25.800Z,2.20
2022-12-24T08:24:52.600Z,2.13
2022-12-24T08:27:19.819Z,2.25
2022-12-24T08:29:46.657Z,2.00
2022-12-24T08:32:13.928Z,2.00
2022-12-24T08:34:40.714Z,2.13
2022-12-24T08:37:07.876Z,2.75
2022-12-24T08:39:34.698Z,2.50
2022-12-24T08:42:01.953Z,1.92
2022-12-24T08:44:28.845Z,1.77
2022-12-24T08:46:56.034Z,1.90
2022-12-24T08:49:23.176Z,1.70
2022-12-24T08:51:51.428Z,3.53
2022-12-24T08:54:18.840Z,17.52
2022-12-24T08:56:46.002Z,54.97
2022-12-24T08:59:12.850Z,15.23
2022-12-24T09:01:40.175Z,3.85
2022-12-24T09:04:07.111Z,2.00
2022-12-24T09:06:34.263Z,2.58
2022-12-24T09:09:01.115Z,1.80
2022-12-24T09:11:28.533Z,2.20
2022-12-24T09:13:55.511Z,1.70
2022-12-24T09:16:23.005Z,1.70
2022-12-24T09:18:49.864Z,1.80
2022-12-24T09:21:17.811Z,2.30
2022-12-24T09:23:46.523Z,2.07
2022-12-24T09:26:25.806Z,2.13
2022-12-24T09:28:53.244Z,3.10
2022-12-24T09:31:20.550Z,2.88
2022-12-24T09:33:49.301Z,3.40
2022-12-24T09:36:16.640Z,2.70
2022-12-24T09:38:43.875Z,2.45
2022-12-24T09:41:22.741Z,2.33
2022-12-24T09:43:58.535Z,2.10
2022-12-24T09:46:33.349Z,4.40
2022-12-24T09:49:08.685Z,5.40
2022-12-24T09:51:55.586Z,3.58
2022-12-24T09:54:28.343Z,4.40
2022-12-24T09:56:57.977Z,5.03
2022-12-24T09:59:39.583Z,6.25
2022-12-24T10:02:12.727Z,2.33
2022-12-24T10:04:39.971Z,2.80
2022-12-24T10:07:47.949Z,2.40
2022-12-24T10:10:26.692Z,4.20
2022-12-24T10:13:20.272Z,2.30
2022-12-24T10:16:07.293Z,1.70
2022-12-24T10:18:49.454Z,1.50
2022-12-24T10:21:28.001Z,1.92
2022-12-24T10:24:20.063Z,1.75
2022-12-24T10:26:51.683Z,1.95
2022-12-24T10:29:23.617Z,1.90
2022-12-24T10:31:57.037Z,3.40
2022-12-24T10:34:28.479Z,2.75
2022-12-24T10:36:56.281Z,2.10
2022-12-24T10:39:26.087Z,1.95
2022-12-24T10:41:57.872Z,1.20
2022-12-24T10:44:28.981Z,1.20
2022-12-24T10:46:56.185Z,1.33
2022-12-24T10:49:51.936Z,1.48
2022-12-24T10:52:22.550Z,2.00
2022-12-24T10:55:22.402Z,2.10
2022-12-24T10:58:01.567Z,1.30
2022-12-24T11:00:35.539Z,1.10
2022-12-24T11:03:07.712Z,1.50
2022-12-24T11:05:36.603Z,1.50
2022-12-24T11:08:07.131Z,1.57
2022-12-24T11:10:40.886Z,1.27
2022-12-24T11:13:37.488Z,1.38
2022-12-24T11:16:15.267Z,1.40
2022-12-24T11:18:51.389Z,1.30
2022-12-24T11:21:21.748Z,1.00
2022-12-24T11:23:51.668Z,1.20
2022-12-24T11:26:23.520Z,1.80
2022-12-24T11:29:21.411Z,1.88
2022-12-24T11:31:50.287Z,1.42
2022-12-24T11:34:33.714Z,1.80
2022-12-24T11:37:15.016Z,1.33
2022-12-24T11:39:48.260Z,1.80
2022-12-24T11:42:38.744Z,1.70
2022-12-24T11:45:22.225Z,1.52
2022-12-24T11:47:49.715Z,1.77
2022-12-24T11:50:21.072Z,2.33
2022-12-24T11:52:55.493Z,2.10
2022-12-24T11:55:35.266Z,2.10
2022-12-24T11:58:22.741Z,2.78
2022-12-24T12:00:51.732Z,1.60
2022-12-24T12:03:34.703Z,2.17
2022-12-24T12:06:07.227Z,1.60
2022-12-24T12:08:36.213Z,1.55
2022-12-24T12:11:10.114Z,1.80
2022-12-24T12:13:39.948Z,1.53
2022-12-24T12:16:18.672Z,1.65
2022-12-24T12:19:00.690Z,1.50
2022-12-24T12:21:36.038Z,2.00
2022-12-24T12:24:19.541Z,2.30
2022-12-24T12:26:47.662Z,1.80
2022-12-24T12:29:45.328Z,1.42
2022-12-24T12:32:21.636Z,1.30
2022-12-24T12:35:01.806Z,2.90
2022-12-24T12:37:45.144Z,3.40
2022-12-24T12:40:17.467Z,2.90
2022-12-24T12:43:08.525Z,2.65
2022-12-24T12:45:47.260Z,2.60
2022-12-24T12:48:33.800Z,2.40
2022-12-24T12:51:13.189Z,2.10
2022-12-24T12:54:08.439Z,1.70
2022-12-24T12:56:37.543Z,1.20
2022-12-24T12:59:15.525Z,2.15
2022-12-24T13:02:20.093Z,3.45
2022-12-24T13:05:26.819Z,4.35
2022-12-24T13:07:53.922Z,12.90
2022-12-24T13:10:48.232Z,8.85
2022-12-24T13:13:33.615Z,5.22
2022-12-24T13:16:26.510Z,4.43
2022-12-24T13:19:02.736Z,3.30
2022-12-24T13:21:30.878Z,3.10
2022-12-24T13:24:06.580Z,3.45
2022-12-24T13:26:33.786Z,2.70
2022-12-24T13:29:29.867Z,2.17
2022-12-24T13:32:19.207Z,1.65
2022-12-24T13:35:10.687Z,1.60
2022-12-24T13:37:38.132Z,1.42
2022-12-24T13:40:08.424Z,1.20
2022-12-24T13:43:01.312Z,1.40
2022-12-24T13:45:31.827Z,1.15
2022-12-24T13:48:07.106Z,1.40
2022-12-24T13:50:49.788Z,1.50
2022-12-24T13:53:23.607Z,1.30
2022-12-24T13:55:54.508Z,1.10
2022-12-24T13:58:23.791Z,1.50
2022-12-24T14:01:02.461Z,1.37
2022-12-24T14:03:33.559Z,1.40
2022-12-24T14:06:25.094Z,1.88
2022-12-24T14:08:56.638Z,3.03
2022-12-24T14:11:26.333Z,2.90
2022-12-24T14:14:05.337Z,4.10
2022-12-24T14:16:43.185Z,4.20
2022-12-24T14:19:18.495Z,3.10
2022-12-24T14:21:58.032Z,3.60
2022-12-24T14:24:31.758Z,2.45
2022-12-24T14:27:06.283Z,2.07
2022-12-24T14:29:40.654Z,1.55
2022-12-24T14:32:15.251Z,1.67
2022-12-24T14:34:42.497Z,1.50
2022-12-24T14:37:13.025Z,1.35
2022-12-24T14:39:44.864Z,1.77
2022-12-24T14:42:37.083Z,1.67
2022-12-24T14:45:15.757Z,2.20
2022-12-24T14:47:50.392Z,2.35
2022-12-24T14:50:47.900Z,1.60
2022-12-24T14:53:52.743Z,1.20
2022-12-24T14:56:22.605Z,2.10
2022-12-24T14:58:50.109Z,1.90
2022-12-24T15:01:31.736Z,1.38
2022-12-24T15:04:11.360Z,1.30
2022-12-24T15:06:42.183Z,1.60
2022-12-24T15:09:19.211Z,1.80
2022-12-24T15:11:48.465Z,2.03
2022-12-24T15:14:17.173Z,1.80
2022-12-24T15:16:52.834Z,2.00
2022-12-24T15:19:34.369Z,1.77
2022-12-24T15:22:02.989Z,2.08
2022-12-24T15:24:44.682Z,1.77
2022-12-24T15:27:17.097Z,1.70
2022-12-24T15:29:46.851Z,2.28
2022-12-24T15:32:15.611Z,2.20
2022-12-24T15:34:45.195Z,1.95
2022-12-24T15:37:17.997Z,1.90
2022-12-24T15:40:00.862Z,2.00
2022-12-24T15:42:28.313Z,1.55
2022-12-24T15:45:04.194Z,1.60
2022-12-24T15:47:40.218Z,2.80
2022-12-24T15:50:35.584Z,3.38
2022-12-24T15:53:18.684Z,3.10
2022-12-24T15:55:48.144Z,3.35
2022-12-24T15:58:27.866Z,2.87
2022-12-24T16:01:28.757Z,2.75
2022-12-24T16:03:58.038Z,2.90
2022-12-24T16:06:25.568Z,2.50
2022-12-24T16:08:52.622Z,2.30
2022-12-24T16:11:34.556Z,2.40
2022-12-24T16:14:12.473Z,2.13
2022-12-24T16:16:42.923Z,2.13
2022-12-24T16:19:20.786Z,2.95
2022-12-24T16:21:53.528Z,2.50
2022-12-24T16:24:28.357Z,1.80
2022-12-24T16:26:56.096Z,1.80
2022-12-24T16:29:23.237Z,1.65
2022-12-24T16:31:53.501Z,1.70
2022-12-24T16:34:24.483Z,1.73
2022-12-24T16:36:51.723Z,1.50
2022-12-24T16:39:38.820Z,1.42
2022-12-24T16:42:24.575Z,1.42
2022-12-24T16:44:53.393Z,1.40
2022-12-24T16:47:24.177Z,1.30
2022-12-24T16:49:51.517Z,1.23
2022-12-24T16:52:26.384Z,1.30
2022-12-24T16:54:53.345Z,1.25
2022-12-24T16:57:23.220Z,1.40
2022-12-24T16:59:51.235Z,1.67
2022-12-24T17:02:20.803Z,2.67
2022-12-24T17:04:48.809Z,2.00
2022-12-24T17:07:18.829Z,3.10
2022-12-24T17:09:45.708Z,5.68
2022-12-24T17:12:14.253Z,7.03
2022-12-24T17:14:42.437Z,12.03
2022-12-24T17:17:21.866Z,7.70
2022-12-24T17:19:48.710Z,7.82
2022-12-24T17:22:16.272Z,6.60
2022-12-24T17:24:43.278Z,5.43
2022-12-24T17:27:10.491Z,5.30
2022-12-24T17:29:37.500Z,5.20
2022-12-24T17:32:05.274Z,5.35
2022-12-24T17:34:32.147Z,5.72
2022-12-24T17:36:59.354Z,9.82
2022-12-24T17:39:28.033Z,7.80
2022-12-24T17:41:55.424Z,8.55
2022-12-24T17:44:22.260Z,5.88
2022-12-24T17:46:49.948Z,14.32
2022-12-24T17:49:16.814Z,12.20
2022-12-24T17:51:46.027Z,8.80
2022-12-24T17:54:13.573Z,6.00
2022-12-24T17:56:41.081Z,5.05
2022-12-24T17:59:07.917Z,3.60
2022-12-24T18:01:35.288Z,2.75
2022-12-24T18:04:03.490Z,2.77
2022-12-24T18:06:30.858Z,2.45
2022-12-24T18:08:58.121Z,2.90
2022-12-24T18:11:33.141Z,2.88
2022-12-24T18:14:01.477Z,2.83
2022-12-24T18:16:31.591Z,2.40
2022-12-24T18:18:59.781Z,2.58
2022-12-24T18:21:29.722Z,2.20
2022-12-24T18:23:56.996Z,2.90
2022-12-24T18:26:26.528Z,2.90
2022-12-24T18:28:55.473Z,3.03
2022-12-24T18:31:23.213Z,3.10
2022-12-24T18:33:51.481Z,2.88
2022-12-24T18:36:19.430Z,2.80
2022-12-24T18:38:48.162Z,3.40
2022-12-24T18:41:21.676Z,2.90
2022-12-24T18:43:48.971Z,2.83
2022-12-24T18:46:22.576Z,2.78
2022-12-24T18:48:50.393Z,2.35
2022-12-24T18:51:19.018Z,1.80
2022-12-24T18:53:45.882Z,1.80
2022-12-24T18:56:16.266Z,2.10
2022-12-24T18:58:43.771Z,1.92
2022-12-24T19:01:15.436Z,2.00
2022-12-24T19:03:42.649Z,1.90
2022-12-24T19:06:10.351Z,2.00
2022-12-24T19:11:26.052Z,1.80
2022-12-24T19:13:53.353Z,1.83
2022-12-24T19:16:21.634Z,2.00
2022-12-24T19:18:49.003Z,2.00
2022-12-24T19:21:17.657Z,2.50
2022-12-24T19:23:45.878Z,2.40
2022-12-24T19:26:14.464Z,2.63
2022-12-24T19:28:41.645Z,4.18
2022-12-24T19:31:13.034Z,4.70
2022-12-24T19:33:43.572Z,4.38
2022-12-24T19:36:14.191Z,4.00
2022-12-24T19:38:41.690Z,4.10
2022-12-24T19:41:19.243Z,3.45
2022-12-24T19:43:48.906Z,4.67
2022-12-24T19:46:20.696Z,4.80
2022-12-24T19:48:50.512Z,7.65
2022-12-24T19:51:18.528Z,7.30
2022-12-24T19:53:46.481Z,6.60
2022-12-24T19:56:18.095Z,7.73
2022-12-24T19:58:46.802Z,7.22
2022-12-24T20:01:18.589Z,7.95
2022-12-24T20:03:47.245Z,8.73
2022-12-24T20:06:15.977Z,7.60
2022-12-24T20:08:43.669Z,7.20
2022-12-24T20:11:13.357Z,5.70
2022-12-24T20:13:41.136Z,6.28
2022-12-24T20:16:14.134Z,3.75
2022-12-24T20:18:41.564Z,3.63
2022-12-24T20:21:11.102Z,4.37
2022-12-24T20:23:40.137Z,3.78
2022-12-24T20:26:08.378Z,3.80
2022-12-24T20:28:36.902Z,4.18
2022-12-24T20:31:10.848Z,4.43
2022-12-24T20:33:38.318Z,4.67
2022-12-24T20:36:06.462Z,4.03
2022-12-24T20:38:34.149Z,4.43
2022-12-24T20:41:01.271Z,4.20
2022-12-24T20:43:34.509Z,4.32
2022-12-24T20:46:04.123Z,4.30
2022-12-24T20:48:31.495Z,4.35
2022-12-24T20:50:59.205Z,4.38
2022-12-24T20:53:27.231Z,4.00
2022-12-24T20:55:54.561Z,4.30
2022-12-24T20:58:21.875Z,4.40
2022-12-24T21:00:49.759Z,5.13
2022-12-24T21:03:18.539Z,5.22
2022-12-24T21:05:45.712Z,4.75
2022-12-24T21:08:14.327Z,5.68
2022-12-24T21:10:42.309Z,5.93
2022-12-24T21:13:09.847Z,7.00
2022-12-24T21:15:40.733Z,6.50
2022-12-24T21:18:12.093Z,6.00
2022-12-24T21:20:41.521Z,6.50
2022-12-24T21:23:10.501Z,5.83
2022-12-24T21:25:37.378Z,6.28
2022-12-24T21:28:04.741Z,6.95
2022-12-24T21:30:32.404Z,6.25
2022-12-24T21:32:59.646Z,7.07
2022-12-24T21:35:26.490Z,7.53
2022-12-24T21:37:53.826Z,7.77
2022-12-24T21:40:20.715Z,7.43
2022-12-24T21:42:49.941Z,6.15
2022-12-24T21:45:16.800Z,6.50
2022-12-24T21:47:45.253Z,6.55
2022-12-24T21:50:34.155Z,7.20
2022-12-24T21:53:19.768Z,6.65
2022-12-24T21:55:46.621Z,6.63
2022-12-24T21:58:14.043Z,6.18
2022-12-24T22:00:40.961Z,5.45
2022-12-24T22:03:08.406Z,6.10
2022-12-24T22:05:36.525Z,6.25
2022-12-24T22:08:22.755Z,6.00
2022-12-24T22:11:08.111Z,5.55
2022-12-24T22:13:35.345Z,6.68
2022-12-24T22:16:02.225Z,6.90
2022-12-24T22:18:29.582Z,7.28
2022-12-24T22:20:56.696Z,7.05
2022-12-24T22:23:23.971Z,7.43
2022-12-24T22:25:51.021Z,6.05
2022-12-24T22:28:19.569Z,5.80
2022-12-24T22:30:46.483Z,6.18
2022-12-24T22:33:13.647Z,6.32
2022-12-24T22:35:40.941Z,6.95
2022-12-24T22:38:10.061Z,6.70
2022-12-24T22:40:39.830Z,8.17
2022-12-24T22:43:07.290Z,8.50
2022-12-24T22:45:34.257Z,7.55
2022-12-24T22:48:02.583Z,7.22
2022-12-24T22:50:29.538Z,7.40
2022-12-24T22:52:56.773Z,7.83
2022-12-24T22:55:23.635Z,6.93
2022-12-24T22:57:50.802Z,7.80
2022-12-24T23:00:41.004Z,7.45
2022-12-24T23:03:08.689Z,6.47
2022-12-24T23:05:35.999Z,6.20
2022-12-24T23:08:04.141Z,7.03
2022-12-24T23:10:31.202Z,6.00
2022-12-24T23:13:17.146Z,5.10
2022-12-24T23:15:44.363Z,5.55
2022-12-24T23:18:11.542Z,5.10
2022-12-24T23:20:40.966Z,5.80
2022-12-24T23:23:08.730Z,5.47
2022-12-24T23:25:35.849Z,5.32
2022-12-24T23:28:03.500Z,5.75
2022-12-24T23:30:30.321Z,5.27
2022-12-24T23:32:57.543Z,4.60
2022-12-24T23:35:24.653Z,4.55
2022-12-24T23:37:51.895Z,4.43
2022-12-24T23:40:18.921Z,4.95
2022-12-24T23:42:46.334Z,4.30
2022-12-24T23:45:13.476Z,5.35
2022-12-24T23:47:40.674Z,5.68
2022-12-24T23:50:08.195Z,4.60
2022-12-24T23:52:35.362Z,4.80
2022-12-24T23:55:02.213Z,5.10
2022-12-24T23:57:29.534Z,4.80
2022-12-24T23:59:56.424Z,4.93
